sensor_id;sensor_type;location;lat;lon;timestamp;temperature;humidity
23475;DHT22;11910;52.086;21.066;2023-12-29T00:00:42;5.40;99.90
23475;DHT22;11910;52.086;21.066;2023-12-29T00:03:08;5.40;99.90
23475;DHT22;11910;52.086;21.066;2023-12-29T00:05:34;5.40;99.90
23475;DHT22;11910;52.086;21.066;2023-12-29T00:07:59;5.40;99.90
23475;DHT22;11910;52.086;21.066;2023-12-29T00:10:25;5.30;99.90
23475;DHT22;11910;52.086;21.066;2023-12-29T00:12:50;5.40;99.90
23475;DHT22;11910;52.086;21.066;2023-12-29T00:15:19;5.30;99.90
23475;DHT22;11910;52.086;21.066;2023-12-29T00:17:45;5.40;99.90
23475;DHT22;11910;52.086;21.066;2023-12-29T00:20:12;5.40;99.90
23475;DHT22;11910;52.086;21.066;2023-12-29T00:22:37;5.40;99.90
23475;DHT22;11910;52.086;21.066;2023-12-29T00:25:03;5.40;99.90
23475;DHT22;11910;52.086;21.066;2023-12-29T00:27:29;5.40;99.90
23475;DHT22;11910;52.086;21.066;2023-12-29T00:29:55;5.30;99.90
23475;DHT22;11910;52.086;21.066;2023-12-29T00:32:20;5.40;99.90
23475;DHT22;11910;52.086;21.066;2023-12-29T00:34:46;5.30;99.90
23475;DHT22;11910;52.086;21.066;2023-12-29T00:37:11;5.40;99.90
23475;DHT22;11910;52.086;21.066;2023-12-29T00:39:37;5.30;99.90
23475;DHT22;11910;52.086;21.066;2023-12-29T00:42:06;5.30;99.90
23475;DHT22;11910;52.086;21.066;2023-12-29T00:44:32;5.30;99.90
23475;DHT22;11910;52.086;21.066;2023-12-29T00:46:58;5.30;99.90
23475;DHT22;11910;52.086;21.066;2023-12-29T00:49:24;5.40;99.90
23475;DHT22;11910;52.086;21.066;2023-12-29T00:51:49;5.30;99.90
23475;DHT22;11910;52.086;21.066;2023-12-29T00:54:15;5.30;99.90
23475;DHT22;11910;52.086;21.066;2023-12-29T00:56:41;5.30;99.90
23475;DHT22;11910;52.086;21.066;2023-12-29T00:59:06;5.30;99.90
23475;DHT22;11910;52.086;21.066;2023-12-29T01:01:35;5.30;99.90
23475;DHT22;11910;52.086;21.066;2023-12-29T01:04:02;5.30;99.90
23475;DHT22;11910;52.086;21.066;2023-12-29T01:06:27;5.30;99.90
23475;DHT22;11910;52.086;21.066;2023-12-29T01:08:53;5.20;99.90
23475;DHT22;11910;52.086;21.066;2023-12-29T01:11:18;5.20;99.90
23475;DHT22;11910;52.086;21.066;2023-12-29T01:13:44;5.20;99.90
23475;DHT22;11910;52.086;21.066;2023-12-29T01:16:09;5.20;99.90
23475;DHT22;11910;52.086;21.066;2023-12-29T01:18:35;5.10;99.90
23475;DHT22;11910;52.086;21.066;2023-12-29T01:21:01;5.20;99.90
23475;DHT22;11910;52.086;21.066;2023-12-29T01:23:26;5.10;99.90
23475;DHT22;11910;52.086;21.066;2023-12-29T01:25:52;5.10;99.90
23475;DHT22;11910;52.086;21.066;2023-12-29T01:28:17;5.10;99.90
23475;DHT22;11910;52.086;21.066;2023-12-29T01:30:43;5.10;99.90
23475;DHT22;11910;52.086;21.066;2023-12-29T01:33:09;5.10;99.90
23475;DHT22;11910;52.086;21.066;2023-12-29T01:35:34;5.10;99.90
23475;DHT22;11910;52.086;21.066;2023-12-29T01:38:01;5.10;99.90
23475;DHT22;11910;52.086;21.066;2023-12-29T01:40:27;5.00;99.90
23475;DHT22;11910;52.086;21.066;2023-12-29T01:42:53;5.00;99.90
23475;DHT22;11910;52.086;21.066;2023-12-29T01:45:23;5.00;99.90
23475;DHT22;11910;52.086;21.066;2023-12-29T01:47:52;5.00;99.90
23475;DHT22;11910;52.086;21.066;2023-12-29T01:50:19;5.00;99.90
23475;DHT22;11910;52.086;21.066;2023-12-29T01:52:48;5.00;99.90
23475;DHT22;11910;52.086;21.066;2023-12-29T01:55:20;4.90;99.90
23475;DHT22;11910;52.086;21.066;2023-12-29T01:57:48;4.90;99.90
23475;DHT22;11910;52.086;21.066;2023-12-29T02:00:15;4.90;99.90
23475;DHT22;11910;52.086;21.066;2023-12-29T02:02:42;4.90;99.90
23475;DHT22;11910;52.086;21.066;2023-12-29T02:05:09;4.90;99.90
23475;DHT22;11910;52.086;21.066;2023-12-29T02:07:36;4.90;99.90
23475;DHT22;11910;52.086;21.066;2023-12-29T02:10:02;4.90;99.90
23475;DHT22;11910;52.086;21.066;2023-12-29T02:12:28;4.80;99.90
23475;DHT22;11910;52.086;21.066;2023-12-29T02:14:54;4.80;99.90
23475;DHT22;11910;52.086;21.066;2023-12-29T02:17:26;4.80;99.90
23475;DHT22;11910;52.086;21.066;2023-12-29T02:19:53;4.80;99.90
23475;DHT22;11910;52.086;21.066;2023-12-29T02:22:18;4.80;99.90
23475;DHT22;11910;52.086;21.066;2023-12-29T02:24:48;4.80;99.90
23475;DHT22;11910;52.086;21.066;2023-12-29T02:30:07;4.70;99.90
23475;DHT22;11910;52.086;21.066;2023-12-29T02:32:34;4.70;99.90
23475;DHT22;11910;52.086;21.066;2023-12-29T02:35:01;4.70;99.90
23475;DHT22;11910;52.086;21.066;2023-12-29T02:37:28;4.70;99.90
23475;DHT22;11910;52.086;21.066;2023-12-29T02:39:56;4.70;99.90
23475;DHT22;11910;52.086;21.066;2023-12-29T02:42:22;4.60;99.90
23475;DHT22;11910;52.086;21.066;2023-12-29T02:44:48;4.70;99.90
23475;DHT22;11910;52.086;21.066;2023-12-29T02:47:13;4.60;99.90
23475;DHT22;11910;52.086;21.066;2023-12-29T02:49:39;4.60;99.90
23475;DHT22;11910;52.086;21.066;2023-12-29T02:52:05;4.60;99.90
23475;DHT22;11910;52.086;21.066;2023-12-29T02:54:30;4.60;99.90
23475;DHT22;11910;52.086;21.066;2023-12-29T02:56:56;4.50;99.90
23475;DHT22;11910;52.086;21.066;2023-12-29T02:59:22;4.60;99.90
23475;DHT22;11910;52.086;21.066;2023-12-29T03:01:47;4.50;99.90
23475;DHT22;11910;52.086;21.066;2023-12-29T03:04:13;4.50;99.90
23475;DHT22;11910;52.086;21.066;2023-12-29T03:06:40;4.50;99.90
23475;DHT22;11910;52.086;21.066;2023-12-29T03:09:05;4.50;99.90
23475;DHT22;11910;52.086;21.066;2023-12-29T03:11:31;4.50;99.90
23475;DHT22;11910;52.086;21.066;2023-12-29T03:13:57;4.50;99.90
23475;DHT22;11910;52.086;21.066;2023-12-29T03:16:22;4.50;99.90
23475;DHT22;11910;52.086;21.066;2023-12-29T03:18:48;4.50;99.90
23475;DHT22;11910;52.086;21.066;2023-12-29T03:21:14;4.50;99.90
23475;DHT22;11910;52.086;21.066;2023-12-29T03:23:39;4.40;99.90
23475;DHT22;11910;52.086;21.066;2023-12-29T03:26:05;4.40;99.90
23475;DHT22;11910;52.086;21.066;2023-12-29T03:28:30;4.40;99.90
23475;DHT22;11910;52.086;21.066;2023-12-29T03:30:56;4.40;99.90
23475;DHT22;11910;52.086;21.066;2023-12-29T03:33:21;4.40;99.90
23475;DHT22;11910;52.086;21.066;2023-12-29T03:35:47;4.40;99.90
23475;DHT22;11910;52.086;21.066;2023-12-29T03:38:13;4.40;99.90
23475;DHT22;11910;52.086;21.066;2023-12-29T03:40:40;4.40;99.90
23475;DHT22;11910;52.086;21.066;2023-12-29T03:43:05;4.40;99.90
23475;DHT22;11910;52.086;21.066;2023-12-29T03:45:31;4.40;99.90
23475;DHT22;11910;52.086;21.066;2023-12-29T03:47:56;4.40;99.90
23475;DHT22;11910;52.086;21.066;2023-12-29T03:50:22;4.40;99.90
23475;DHT22;11910;52.086;21.066;2023-12-29T03:52:48;4.40;99.90
23475;DHT22;11910;52.086;21.066;2023-12-29T03:55:13;4.40;99.90
23475;DHT22;11910;52.086;21.066;2023-12-29T03:57:40;4.40;99.90
23475;DHT22;11910;52.086;21.066;2023-12-29T04:00:06;4.30;99.90
23475;DHT22;11910;52.086;21.066;2023-12-29T04:02:31;4.40;99.90
23475;DHT22;11910;52.086;21.066;2023-12-29T04:04:58;4.30;99.90
23475;DHT22;11910;52.086;21.066;2023-12-29T04:07:23;4.30;99.90
23475;DHT22;11910;52.086;21.066;2023-12-29T04:09:49;4.30;99.90
23475;DHT22;11910;52.086;21.066;2023-12-29T04:12:15;4.30;99.90
23475;DHT22;11910;52.086;21.066;2023-12-29T04:14:40;4.30;99.90
23475;DHT22;11910;52.086;21.066;2023-12-29T04:17:06;4.30;99.90
23475;DHT22;11910;52.086;21.066;2023-12-29T04:19:42;4.30;99.90
23475;DHT22;11910;52.086;21.066;2023-12-29T04:22:07;4.30;99.90
23475;DHT22;11910;52.086;21.066;2023-12-29T04:24:34;4.30;99.90
23475;DHT22;11910;52.086;21.066;2023-12-29T04:26:59;4.30;99.90
23475;DHT22;11910;52.086;21.066;2023-12-29T04:29:25;4.30;99.90
23475;DHT22;11910;52.086;21.066;2023-12-29T04:31:51;4.30;99.90
23475;DHT22;11910;52.086;21.066;2023-12-29T04:34:16;4.30;99.90
23475;DHT22;11910;52.086;21.066;2023-12-29T04:36:42;4.40;99.90
23475;DHT22;11910;52.086;21.066;2023-12-29T04:39:07;4.30;99.90
23475;DHT22;11910;52.086;21.066;2023-12-29T04:41:36;4.30;99.90
23475;DHT22;11910;52.086;21.066;2023-12-29T04:44:01;4.30;99.90
23475;DHT22;11910;52.086;21.066;2023-12-29T04:46:27;4.30;99.90
23475;DHT22;11910;52.086;21.066;2023-12-29T04:48:53;4.30;99.90
23475;DHT22;11910;52.086;21.066;2023-12-29T04:51:19;4.40;99.90
23475;DHT22;11910;52.086;21.066;2023-12-29T04:53:45;4.40;99.90
23475;DHT22;11910;52.086;21.066;2023-12-29T04:56:11;4.50;99.90
23475;DHT22;11910;52.086;21.066;2023-12-29T04:58:38;4.60;99.90
23475;DHT22;11910;52.086;21.066;2023-12-29T05:01:03;4.60;99.90
23475;DHT22;11910;52.086;21.066;2023-12-29T05:03:29;4.70;99.90
23475;DHT22;11910;52.086;21.066;2023-12-29T05:05:55;4.70;99.90
23475;DHT22;11910;52.086;21.066;2023-12-29T05:08:21;4.70;99.90
23475;DHT22;11910;52.086;21.066;2023-12-29T05:10:46;4.80;99.90
23475;DHT22;11910;52.086;21.066;2023-12-29T05:13:12;4.80;99.90
23475;DHT22;11910;52.086;21.066;2023-12-29T05:15:38;4.90;99.90
23475;DHT22;11910;52.086;21.066;2023-12-29T05:18:03;4.90;99.90
23475;DHT22;11910;52.086;21.066;2023-12-29T05:20:29;5.00;99.90
23475;DHT22;11910;52.086;21.066;2023-12-29T05:22:55;5.00;99.90
23475;DHT22;11910;52.086;21.066;2023-12-29T05:25:20;5.00;99.90
23475;DHT22;11910;52.086;21.066;2023-12-29T05:27:47;5.10;99.90
23475;DHT22;11910;52.086;21.066;2023-12-29T05:30:13;5.10;99.90
23475;DHT22;11910;52.086;21.066;2023-12-29T05:32:39;5.10;99.90
23475;DHT22;11910;52.086;21.066;2023-12-29T05:35:05;5.10;99.90
23475;DHT22;11910;52.086;21.066;2023-12-29T05:37:30;5.10;99.90
23475;DHT22;11910;52.086;21.066;2023-12-29T05:39:56;5.10;99.90
23475;DHT22;11910;52.086;21.066;2023-12-29T05:42:22;5.20;99.90
23475;DHT22;11910;52.086;21.066;2023-12-29T05:44:47;5.20;99.90
23475;DHT22;11910;52.086;21.066;2023-12-29T05:47:13;5.30;99.90
23475;DHT22;11910;52.086;21.066;2023-12-29T05:49:39;5.30;99.90
23475;DHT22;11910;52.086;21.066;2023-12-29T05:52:05;5.40;99.90
23475;DHT22;11910;52.086;21.066;2023-12-29T05:54:31;5.40;99.90
23475;DHT22;11910;52.086;21.066;2023-12-29T05:56:57;5.50;99.90
23475;DHT22;11910;52.086;21.066;2023-12-29T05:59:23;5.50;99.90
23475;DHT22;11910;52.086;21.066;2023-12-29T06:01:49;5.60;99.90
23475;DHT22;11910;52.086;21.066;2023-12-29T06:04:14;5.60;99.90
23475;DHT22;11910;52.086;21.066;2023-12-29T06:06:42;5.60;99.90
23475;DHT22;11910;52.086;21.066;2023-12-29T06:09:09;5.70;99.90
23475;DHT22;11910;52.086;21.066;2023-12-29T06:11:35;5.70;99.90
23475;DHT22;11910;52.086;21.066;2023-12-29T06:14:01;5.70;99.90
23475;DHT22;11910;52.086;21.066;2023-12-29T06:16:27;5.70;99.90
23475;DHT22;11910;52.086;21.066;2023-12-29T06:18:55;5.70;99.90
23475;DHT22;11910;52.086;21.066;2023-12-29T06:21:20;5.70;99.90
23475;DHT22;11910;52.086;21.066;2023-12-29T06:23:46;5.80;99.90
23475;DHT22;11910;52.086;21.066;2023-12-29T06:26:16;5.80;99.90
23475;DHT22;11910;52.086;21.066;2023-12-29T06:28:42;5.80;99.90
23475;DHT22;11910;52.086;21.066;2023-12-29T06:31:08;5.80;99.90
23475;DHT22;11910;52.086;21.066;2023-12-29T06:33:33;5.70;99.90
23475;DHT22;11910;52.086;21.066;2023-12-29T06:35:59;5.70;99.90
23475;DHT22;11910;52.086;21.066;2023-12-29T06:38:24;5.70;99.90
23475;DHT22;11910;52.086;21.066;2023-12-29T06:40:50;5.70;99.90
23475;DHT22;11910;52.086;21.066;2023-12-29T06:43:16;5.70;99.90
23475;DHT22;11910;52.086;21.066;2023-12-29T06:45:41;5.70;99.90
23475;DHT22;11910;52.086;21.066;2023-12-29T06:48:07;5.60;99.90
23475;DHT22;11910;52.086;21.066;2023-12-29T06:50:33;5.60;99.90
23475;DHT22;11910;52.086;21.066;2023-12-29T06:52:58;5.60;99.90
23475;DHT22;11910;52.086;21.066;2023-12-29T06:55:25;5.60;99.90
23475;DHT22;11910;52.086;21.066;2023-12-29T06:57:51;5.60;99.90
23475;DHT22;11910;52.086;21.066;2023-12-29T07:00:16;5.60;99.90
23475;DHT22;11910;52.086;21.066;2023-12-29T07:02:42;5.60;99.90
23475;DHT22;11910;52.086;21.066;2023-12-29T07:05:08;5.60;99.90
23475;DHT22;11910;52.086;21.066;2023-12-29T07:07:37;5.60;99.90
23475;DHT22;11910;52.086;21.066;2023-12-29T07:10:03;5.60;99.90
23475;DHT22;11910;52.086;21.066;2023-12-29T07:12:29;5.60;99.90
23475;DHT22;11910;52.086;21.066;2023-12-29T07:14:54;5.60;99.90
23475;DHT22;11910;52.086;21.066;2023-12-29T07:17:20;5.60;99.90
23475;DHT22;11910;52.086;21.066;2023-12-29T07:19:45;5.70;99.90
23475;DHT22;11910;52.086;21.066;2023-12-29T07:22:11;5.60;99.90
23475;DHT22;11910;52.086;21.066;2023-12-29T07:24:37;5.70;99.90
23475;DHT22;11910;52.086;21.066;2023-12-29T07:27:03;5.70;99.90
23475;DHT22;11910;52.086;21.066;2023-12-29T07:29:29;5.70;99.90
23475;DHT22;11910;52.086;21.066;2023-12-29T07:31:55;5.70;99.90
23475;DHT22;11910;52.086;21.066;2023-12-29T07:34:21;5.70;99.90
23475;DHT22;11910;52.086;21.066;2023-12-29T07:36:46;5.70;99.90
23475;DHT22;11910;52.086;21.066;2023-12-29T07:39:12;5.80;99.90
23475;DHT22;11910;52.086;21.066;2023-12-29T07:41:41;5.90;99.90
23475;DHT22;11910;52.086;21.066;2023-12-29T07:44:08;5.90;99.90
23475;DHT22;11910;52.086;21.066;2023-12-29T07:46:35;6.00;99.90
23475;DHT22;11910;52.086;21.066;2023-12-29T07:49:01;6.00;99.90
23475;DHT22;11910;52.086;21.066;2023-12-29T07:51:26;6.00;99.90
23475;DHT22;11910;52.086;21.066;2023-12-29T07:53:52;6.10;99.90
23475;DHT22;11910;52.086;21.066;2023-12-29T07:56:17;6.10;99.90
23475;DHT22;11910;52.086;21.066;2023-12-29T07:58:43;6.10;99.90
23475;DHT22;11910;52.086;21.066;2023-12-29T08:01:09;6.10;99.90
23475;DHT22;11910;52.086;21.066;2023-12-29T08:03:35;6.20;99.90
23475;DHT22;11910;52.086;21.066;2023-12-29T08:06:01;6.20;99.90
23475;DHT22;11910;52.086;21.066;2023-12-29T08:08:27;6.20;99.90
23475;DHT22;11910;52.086;21.066;2023-12-29T08:10:53;6.20;99.90
23475;DHT22;11910;52.086;21.066;2023-12-29T08:13:18;6.20;99.90
23475;DHT22;11910;52.086;21.066;2023-12-29T08:15:44;6.30;99.90
23475;DHT22;11910;52.086;21.066;2023-12-29T08:18:10;6.30;99.90
23475;DHT22;11910;52.086;21.066;2023-12-29T08:20:36;6.30;99.90
23475;DHT22;11910;52.086;21.066;2023-12-29T08:23:02;6.40;99.90
23475;DHT22;11910;52.086;21.066;2023-12-29T08:25:28;6.40;99.90
23475;DHT22;11910;52.086;21.066;2023-12-29T08:27:55;6.40;99.90
23475;DHT22;11910;52.086;21.066;2023-12-29T08:30:21;6.40;99.90
23475;DHT22;11910;52.086;21.066;2023-12-29T08:32:46;6.50;99.90
23475;DHT22;11910;52.086;21.066;2023-12-29T08:35:12;6.50;99.90
23475;DHT22;11910;52.086;21.066;2023-12-29T08:37:38;6.50;99.90
23475;DHT22;11910;52.086;21.066;2023-12-29T08:40:04;6.60;99.90
23475;DHT22;11910;52.086;21.066;2023-12-29T08:42:30;6.60;99.90
23475;DHT22;11910;52.086;21.066;2023-12-29T08:44:58;6.60;99.90
23475;DHT22;11910;52.086;21.066;2023-12-29T08:47:23;6.70;99.90
23475;DHT22;11910;52.086;21.066;2023-12-29T08:49:49;6.70;99.90
23475;DHT22;11910;52.086;21.066;2023-12-29T08:52:15;6.70;99.90
23475;DHT22;11910;52.086;21.066;2023-12-29T08:54:40;6.80;99.90
23475;DHT22;11910;52.086;21.066;2023-12-29T08:57:06;6.80;99.90
23475;DHT22;11910;52.086;21.066;2023-12-29T08:59:33;6.80;99.90
23475;DHT22;11910;52.086;21.066;2023-12-29T09:01:58;6.90;99.90
23475;DHT22;11910;52.086;21.066;2023-12-29T09:04:24;6.90;99.90
23475;DHT22;11910;52.086;21.066;2023-12-29T09:06:50;7.00;99.90
23475;DHT22;11910;52.086;21.066;2023-12-29T09:09:15;7.10;99.90
23475;DHT22;11910;52.086;21.066;2023-12-29T09:11:44;7.20;99.90
23475;DHT22;11910;52.086;21.066;2023-12-29T09:14:10;7.30;99.90
23475;DHT22;11910;52.086;21.066;2023-12-29T09:16:36;7.40;99.90
23475;DHT22;11910;52.086;21.066;2023-12-29T09:19:02;7.50;99.90
23475;DHT22;11910;52.086;21.066;2023-12-29T09:21:27;7.60;99.90
23475;DHT22;11910;52.086;21.066;2023-12-29T09:23:53;7.60;99.90
23475;DHT22;11910;52.086;21.066;2023-12-29T09:26:19;7.70;99.90
23475;DHT22;11910;52.086;21.066;2023-12-29T09:28:45;7.90;99.90
23475;DHT22;11910;52.086;21.066;2023-12-29T09:31:11;8.00;99.90
23475;DHT22;11910;52.086;21.066;2023-12-29T09:33:37;8.10;99.90
23475;DHT22;11910;52.086;21.066;2023-12-29T09:36:03;8.10;99.90
23475;DHT22;11910;52.086;21.066;2023-12-29T09:38:29;8.10;99.90
23475;DHT22;11910;52.086;21.066;2023-12-29T09:40:59;8.10;99.90
23475;DHT22;11910;52.086;21.066;2023-12-29T09:43:25;8.10;99.90
23475;DHT22;11910;52.086;21.066;2023-12-29T09:45:52;8.10;99.90
23475;DHT22;11910;52.086;21.066;2023-12-29T09:48:19;8.20;99.90
23475;DHT22;11910;52.086;21.066;2023-12-29T09:50:47;8.20;99.90
23475;DHT22;11910;52.086;21.066;2023-12-29T09:53:16;8.20;99.90
23475;DHT22;11910;52.086;21.066;2023-12-29T09:55:42;8.30;99.90
23475;DHT22;11910;52.086;21.066;2023-12-29T09:58:08;8.30;99.90
23475;DHT22;11910;52.086;21.066;2023-12-29T10:00:36;8.40;99.90
23475;DHT22;11910;52.086;21.066;2023-12-29T10:03:02;8.40;99.90
23475;DHT22;11910;52.086;21.066;2023-12-29T10:05:28;8.50;99.90
23475;DHT22;11910;52.086;21.066;2023-12-29T10:07:53;8.70;99.90
23475;DHT22;11910;52.086;21.066;2023-12-29T10:10:20;8.70;99.90
23475;DHT22;11910;52.086;21.066;2023-12-29T10:12:48;8.90;99.90
23475;DHT22;11910;52.086;21.066;2023-12-29T10:15:27;9.00;99.90
23475;DHT22;11910;52.086;21.066;2023-12-29T10:18:11;9.10;99.90
23475;DHT22;11910;52.086;21.066;2023-12-29T10:23:50;9.40;99.90
23475;DHT22;11910;52.086;21.066;2023-12-29T10:26:19;9.60;99.90
23475;DHT22;11910;52.086;21.066;2023-12-29T10:28:47;9.60;99.90
23475;DHT22;11910;52.086;21.066;2023-12-29T10:31:16;9.80;99.90
23475;DHT22;11910;52.086;21.066;2023-12-29T10:33:42;9.70;99.90
23475;DHT22;11910;52.086;21.066;2023-12-29T10:36:07;9.80;99.90
23475;DHT22;11910;52.086;21.066;2023-12-29T10:38:34;9.80;99.90
23475;DHT22;11910;52.086;21.066;2023-12-29T10:41:13;9.90;99.90
23475;DHT22;11910;52.086;21.066;2023-12-29T10:43:44;10.00;99.90
23475;DHT22;11910;52.086;21.066;2023-12-29T10:46:11;10.10;99.90
23475;DHT22;11910;52.086;21.066;2023-12-29T10:48:37;10.10;99.90
23475;DHT22;11910;52.086;21.066;2023-12-29T10:51:03;10.10;99.90
23475;DHT22;11910;52.086;21.066;2023-12-29T10:53:33;10.00;99.90
23475;DHT22;11910;52.086;21.066;2023-12-29T10:55:59;10.10;99.90
23475;DHT22;11910;52.086;21.066;2023-12-29T10:58:29;10.00;99.90
23475;DHT22;11910;52.086;21.066;2023-12-29T11:00:55;10.00;99.90
23475;DHT22;11910;52.086;21.066;2023-12-29T11:03:21;10.00;99.90
23475;DHT22;11910;52.086;21.066;2023-12-29T11:05:47;10.10;99.90
23475;DHT22;11910;52.086;21.066;2023-12-29T11:08:19;10.10;99.90
23475;DHT22;11910;52.086;21.066;2023-12-29T11:10:47;10.20;99.90
23475;DHT22;11910;52.086;21.066;2023-12-29T11:13:13;10.40;99.90
23475;DHT22;11910;52.086;21.066;2023-12-29T11:15:45;10.40;99.90
23475;DHT22;11910;52.086;21.066;2023-12-29T11:18:16;10.40;99.90
23475;DHT22;11910;52.086;21.066;2023-12-29T11:20:44;10.40;99.90
23475;DHT22;11910;52.086;21.066;2023-12-29T11:23:10;10.50;99.90
23475;DHT22;11910;52.086;21.066;2023-12-29T11:25:39;10.40;99.90
23475;DHT22;11910;52.086;21.066;2023-12-29T11:28:10;10.40;99.90
23475;DHT22;11910;52.086;21.066;2023-12-29T11:30:37;10.30;99.90
23475;DHT22;11910;52.086;21.066;2023-12-29T11:33:10;10.30;99.90
23475;DHT22;11910;52.086;21.066;2023-12-29T11:35:50;10.30;99.90
23475;DHT22;11910;52.086;21.066;2023-12-29T11:43:25;10.90;99.90
23475;DHT22;11910;52.086;21.066;2023-12-29T11:45:52;10.70;99.90
23475;DHT22;11910;52.086;21.066;2023-12-29T11:48:55;10.70;99.90
23475;DHT22;11910;52.086;21.066;2023-12-29T11:51:40;10.70;99.90
23475;DHT22;11910;52.086;21.066;2023-12-29T11:54:07;10.60;99.90
23475;DHT22;11910;52.086;21.066;2023-12-29T11:56:34;10.60;99.90
23475;DHT22;11910;52.086;21.066;2023-12-29T11:59:20;10.50;99.90
23475;DHT22;11910;52.086;21.066;2023-12-29T12:01:47;10.60;99.90
23475;DHT22;11910;52.086;21.066;2023-12-29T12:04:42;10.50;99.90
23475;DHT22;11910;52.086;21.066;2023-12-29T12:12:48;10.50;99.90
23475;DHT22;11910;52.086;21.066;2023-12-29T12:17:57;10.50;99.90
23475;DHT22;11910;52.086;21.066;2023-12-29T12:20:23;10.50;99.90
23475;DHT22;11910;52.086;21.066;2023-12-29T12:23:08;10.50;99.90
23475;DHT22;11910;52.086;21.066;2023-12-29T12:25:36;10.50;99.90
23475;DHT22;11910;52.086;21.066;2023-12-29T12:28:09;10.50;99.90
23475;DHT22;11910;52.086;21.066;2023-12-29T12:30:35;10.50;99.90
23475;DHT22;11910;52.086;21.066;2023-12-29T12:33:01;10.40;99.90
23475;DHT22;11910;52.086;21.066;2023-12-29T12:35:28;10.40;99.90
23475;DHT22;11910;52.086;21.066;2023-12-29T12:38:13;10.40;99.90
23475;DHT22;11910;52.086;21.066;2023-12-29T12:40:39;10.40;99.90
23475;DHT22;11910;52.086;21.066;2023-12-29T12:43:06;10.40;99.90
23475;DHT22;11910;52.086;21.066;2023-12-29T12:46:02;10.40;99.90
23475;DHT22;11910;52.086;21.066;2023-12-29T12:48:32;10.40;99.90
23475;DHT22;11910;52.086;21.066;2023-12-29T12:50:59;10.40;99.90
23475;DHT22;11910;52.086;21.066;2023-12-29T12:53:26;10.40;99.90
23475;DHT22;11910;52.086;21.066;2023-12-29T12:55:52;10.40;99.90
23475;DHT22;11910;52.086;21.066;2023-12-29T12:58:20;10.40;99.90
23475;DHT22;11910;52.086;21.066;2023-12-29T13:00:46;10.40;99.90
23475;DHT22;11910;52.086;21.066;2023-12-29T13:03:13;10.40;99.90
23475;DHT22;11910;52.086;21.066;2023-12-29T13:05:39;10.40;99.90
23475;DHT22;11910;52.086;21.066;2023-12-29T13:08:06;10.40;99.90
23475;DHT22;11910;52.086;21.066;2023-12-29T13:10:32;10.40;99.90
23475;DHT22;11910;52.086;21.066;2023-12-29T13:12:58;10.40;99.90
23475;DHT22;11910;52.086;21.066;2023-12-29T13:15:23;10.40;99.90
23475;DHT22;11910;52.086;21.066;2023-12-29T13:17:53;10.40;99.90
23475;DHT22;11910;52.086;21.066;2023-12-29T13:20:19;10.40;99.90
23475;DHT22;11910;52.086;21.066;2023-12-29T13:22:49;10.40;99.90
23475;DHT22;11910;52.086;21.066;2023-12-29T13:25:24;10.30;99.90
23475;DHT22;11910;52.086;21.066;2023-12-29T13:27:51;10.30;99.90
23475;DHT22;11910;52.086;21.066;2023-12-29T13:30:19;10.30;99.90
23475;DHT22;11910;52.086;21.066;2023-12-29T13:32:46;10.40;99.90
23475;DHT22;11910;52.086;21.066;2023-12-29T13:35:33;10.40;99.90
23475;DHT22;11910;52.086;21.066;2023-12-29T13:38:19;10.40;99.90
23475;DHT22;11910;52.086;21.066;2023-12-29T13:41:04;10.40;99.90
23475;DHT22;11910;52.086;21.066;2023-12-29T13:43:34;10.40;99.90
23475;DHT22;11910;52.086;21.066;2023-12-29T13:46:01;10.40;99.90
23475;DHT22;11910;52.086;21.066;2023-12-29T13:48:28;10.40;99.90
23475;DHT22;11910;52.086;21.066;2023-12-29T13:50:54;10.40;99.90
23475;DHT22;11910;52.086;21.066;2023-12-29T13:53:20;10.30;99.90
23475;DHT22;11910;52.086;21.066;2023-12-29T13:55:47;10.30;99.90
23475;DHT22;11910;52.086;21.066;2023-12-29T13:58:12;10.30;99.90
23475;DHT22;11910;52.086;21.066;2023-12-29T14:00:43;10.20;99.90
23475;DHT22;11910;52.086;21.066;2023-12-29T14:03:42;10.20;99.90
23475;DHT22;11910;52.086;21.066;2023-12-29T14:06:12;10.20;99.90
23475;DHT22;11910;52.086;21.066;2023-12-29T14:08:41;10.20;99.90
23475;DHT22;11910;52.086;21.066;2023-12-29T14:11:10;10.20;99.90
23475;DHT22;11910;52.086;21.066;2023-12-29T14:13:44;10.20;99.90
23475;DHT22;11910;52.086;21.066;2023-12-29T14:16:10;10.10;99.90
23475;DHT22;11910;52.086;21.066;2023-12-29T14:21:31;10.10;99.90
23475;DHT22;11910;52.086;21.066;2023-12-29T14:24:05;10.00;99.90
23475;DHT22;11910;52.086;21.066;2023-12-29T14:26:31;10.00;99.90
23475;DHT22;11910;52.086;21.066;2023-12-29T14:31:26;9.90;99.90
23475;DHT22;11910;52.086;21.066;2023-12-29T14:33:52;9.90;99.90
23475;DHT22;11910;52.086;21.066;2023-12-29T14:36:18;9.90;99.90
23475;DHT22;11910;52.086;21.066;2023-12-29T14:38:44;9.80;99.90
23475;DHT22;11910;52.086;21.066;2023-12-29T14:41:10;9.80;99.90
23475;DHT22;11910;52.086;21.066;2023-12-29T14:43:35;9.80;99.90
23475;DHT22;11910;52.086;21.066;2023-12-29T14:46:02;9.80;99.90
23475;DHT22;11910;52.086;21.066;2023-12-29T14:48:27;9.80;99.90
23475;DHT22;11910;52.086;21.066;2023-12-29T14:50:53;9.80;99.90
23475;DHT22;11910;52.086;21.066;2023-12-29T14:53:18;9.80;99.90
23475;DHT22;11910;52.086;21.066;2023-12-29T14:55:44;9.70;99.90
23475;DHT22;11910;52.086;21.066;2023-12-29T14:58:10;9.70;99.90
23475;DHT22;11910;52.086;21.066;2023-12-29T15:00:36;9.70;99.90
23475;DHT22;11910;52.086;21.066;2023-12-29T15:03:01;9.70;99.90
23475;DHT22;11910;52.086;21.066;2023-12-29T15:05:28;9.60;99.90
23475;DHT22;11910;52.086;21.066;2023-12-29T15:07:53;9.50;99.90
23475;DHT22;11910;52.086;21.066;2023-12-29T15:10:19;9.40;99.90
23475;DHT22;11910;52.086;21.066;2023-12-29T15:12:44;9.40;99.90
23475;DHT22;11910;52.086;21.066;2023-12-29T15:15:10;9.30;99.90
23475;DHT22;11910;52.086;21.066;2023-12-29T15:17:39;9.30;99.90
23475;DHT22;11910;52.086;21.066;2023-12-29T15:20:05;9.30;99.90
23475;DHT22;11910;52.086;21.066;2023-12-29T15:22:32;9.30;99.90
23475;DHT22;11910;52.086;21.066;2023-12-29T15:24:58;9.30;99.90
23475;DHT22;11910;52.086;21.066;2023-12-29T15:27:23;9.30;99.90
23475;DHT22;11910;52.086;21.066;2023-12-29T15:29:49;9.30;99.90
23475;DHT22;11910;52.086;21.066;2023-12-29T15:32:15;9.20;99.90
23475;DHT22;11910;52.086;21.066;2023-12-29T15:34:40;9.20;99.90
23475;DHT22;11910;52.086;21.066;2023-12-29T15:37:06;9.10;99.90
23475;DHT22;11910;52.086;21.066;2023-12-29T15:39:32;9.10;99.90
23475;DHT22;11910;52.086;21.066;2023-12-29T15:41:57;9.00;99.90
23475;DHT22;11910;52.086;21.066;2023-12-29T15:44:23;9.00;99.90
23475;DHT22;11910;52.086;21.066;2023-12-29T15:46:48;8.90;99.90
23475;DHT22;11910;52.086;21.066;2023-12-29T15:49:14;8.90;99.90
23475;DHT22;11910;52.086;21.066;2023-12-29T15:51:40;8.90;99.90